Terminal Aerodrome Forecast
Issued by NWS Tallahassee, FL

Home | Current Version | Previous Version | Text Only | Print | Product List | Glossary On
Versions: 1 2 3 4 5 6 7 8 9 10 11 12 13 14 15 16 17 18 19 20 21 22
000
FTUS42 KTAE 030800 AAA
TAFTLH
TAF AMD
KTLH 030811Z 0308/0406 00000KT 1/4SM FG VV001
      TEMPO 0308/0312 1SM BR OVC003
     FM031400 14005KT P6SM OVC007
     FM031600 15006KT P6SM OVC012
     FM031900 17007KT P6SM BKN050
     FM040000 17004KT P6SM BKN250=

USA.gov is the U.S. government's official web portal to all federal, state and local government web resources and services.